• Join FlightAware (Why Join?)
  • Login
  • US Flag 
12:47AM EDT


 

Airport Tracker/Info


-or-


 

Live Flight TrackerFlight Track Log ✈ KFS86 ✈ 19-Jul-2013 ✈ KSBA - KTIW

Flight Track Log - Related Links

Times and Time Zones

All times are in EDT time to prevent confusion due to time zone crossing. See the KFS86 flight status page for this flight to view local times or setup timezone preferences in your user account.

Time Position Orientation Groundspeed Altitude Reporting Facility
EDT Latitude Longitude Course Direction KTS MPH feet Rate Location/Type
04:57PM 34.4247 -119.8750 258° West 193 222 1,200  Level Los Angeles Center
04:58PM 34.4139 -119.9361 258° West 209 241 3,200 2,100 Climbing Los Angeles Center
04:59PM 34.4033 -120.0139 261° West 225 259 5,400 1,980 Climbing Los Angeles Center
05:00PM 34.3881 -120.0992 258° West 263 303 7,400 2,220 Climbing Los Angeles Center
05:01PM 34.4453 -120.1725 313° West 289 333 10,000 2,220 Climbing Los Angeles Center
05:02PM 34.5228 -120.1872 351° North 279 321 12,100 1,680 Climbing Los Angeles Center
05:03PM 34.6089 -120.2061 350° North 304 350 13,500 1,740 Climbing Los Angeles Center
05:04PM 34.6994 -120.2275 349° North 331 381 15,700 1,980 Climbing Los Angeles Center
05:05PM 34.7889 -120.2475 350° North 331 381 17,700 2,040 Climbing Los Angeles Center
05:06PM 34.8989 -120.2694 351° North 337 388 20,000 1,860 Climbing Los Angeles Center
05:07PM 34.9925 -120.2906 350° North 343 395 21,600 1,320 Climbing Los Angeles Center
05:08PM 35.0906 -120.3119 350° North 356 410 22,800 1,260 Climbing Los Angeles Center
05:09PM 35.1914 -120.3336 350° North 368 423 24,300 1,440 Climbing Los Angeles Center
05:10PM 35.2928 -120.3561 350° North 370 426 25,800 1,380 Climbing Los Angeles Center
05:11PM 35.4167 -120.3828 350° North 378 435 27,200 960 Climbing Los Angeles Center
05:12PM 35.5233 -120.4086 349° North 389 448 27,900 780 Climbing Los Angeles Center
05:13PM 35.6339 -120.4344 349° North 402 463 28,900 960 Climbing Los Angeles Center
05:14PM 35.7389 -120.4575 350° North 408 470 30,000 1,200 Climbing Los Angeles Center
05:15PM 35.8283 -120.4756 351° North 409 471 31,100 1,080 Climbing Oakland Center
05:16PM 35.9414 -120.4994 350° North 411 473 32,000 480 Climbing Oakland Center
05:17PM 36.0850 -120.5167 354° North 435 501 32,100 180 Climbing Oakland Center
05:18PM 36.2106 -120.4944 North 451 519 32,400 480 Climbing Oakland Center
05:19PM 36.3336 -120.4700 North 449 517 33,200 720 Climbing Oakland Center
05:20PM 36.4542 -120.4856 354° North 437 503 33,900 600 Climbing Oakland Center
05:21PM 36.5758 -120.5086 351° North 440 506 34,500 600 Climbing Oakland Center
05:22PM 36.6967 -120.5336 351° North 441 507 35,200 600 Climbing Oakland Center
05:23PM 36.8228 -120.5603 350° North 439 505 35,800 360 Climbing Oakland Center
05:24PM 36.9450 -120.5811 352° North 442 509 36,000 60 Climbing Oakland Center
05:25PM 37.0708 -120.6097 350° North 456 525 36,000  Level Oakland Center
05:26PM 37.2244 -120.6367 352° North 463 533 36,000  Level Oakland Center
05:27PM 37.3522 -120.6656 350° North 465 535 36,000 240 Level Oakland Center
05:28PM 37.4803 -120.6878 352° North 465 535 36,500 660 Climbing Oakland Center
05:30PM 37.6031 -120.7167 349° North 452 520 37,400 660 Climbing Oakland Center
05:31PM 37.7267 -120.7367 353° North 448 516 37,900 240 Climbing Oakland Center
05:32PM 37.8478 -120.7678 349° North 445 512 37,900 60 Level Oakland Center
05:33PM 37.9742 -120.7889 352° North 456 525 38,100  Climbing Oakland Center
05:34PM 38.1244 -120.8211 350° North 458 527 38,000 -60 Descending Oakland Center
05:35PM 38.2503 -120.8461 351° North 459 528 38,000  Level Oakland Center
05:36PM 38.3753 -120.8736 350° North 459 528 38,000  Level Oakland Center
05:37PM 38.5003 -120.8981 351° North 459 528 38,000  Level Oakland Center
05:38PM 38.6250 -120.9244 351° North 460 529 38,000  Level Oakland Center
05:39PM 38.7503 -120.9483 352° North 460 529 38,000  Level Oakland Center
05:40PM 38.9006 -120.9833 350° North 461 531 38,000  Level Oakland Center
05:41PM 39.0264 -121.0075 352° North 460 529 38,000  Level Oakland Center
05:42PM 39.1522 -121.0350 350° North 460 529 38,100  Climbing Oakland Center
05:43PM 39.2783 -121.0606 351° North 460 529 38,000 -60 Descending Oakland Center
05:44PM 39.4056 -121.0878 351° North 463 533 38,000  Level Oakland Center
05:45PM 39.5308 -121.1164 350° North 459 528 38,000  Level Oakland Center
05:46PM 39.6578 -121.1400 352° North 460 529 38,000  Level Oakland Center
05:47PM 39.7925 -121.1736 349° North 458 527 38,000  Level Oakland Center
05:48PM 39.9186 -121.1969 352° North 460 529 38,000  Level Oakland Center
05:49PM 40.0683 -121.2336 349° North 459 528 38,000  Level Oakland Center
05:50PM 40.1947 -121.2569 352° North 460 529 38,000  Level Oakland Center
05:51PM 40.3189 -121.2864 350° North 454 522 38,000  Level Oakland Center
05:52PM 40.4444 -121.3153 350° North 459 528 38,000  Level Oakland Center
05:53PM 40.5728 -121.3417 351° North 459 528 38,000  Level Oakland Center
05:54PM 40.6978 -121.3728 349° North 458 527 38,000  Level Oakland Center
05:55PM 40.8447 -121.4014 352° North 459 528 38,000  Level Oakland Center
05:56PM 40.9675 -121.4331 349° North 451 519 38,000  Level Oakland Center
05:57PM 41.0964 -121.4597 351° North 452 520 38,000  Level Oakland Center
05:58PM 41.2175 -121.4889 350° North 442 509 38,000  Level Oakland Center
05:59PM 41.3425 -121.5144 351° North 453 521 38,000  Level Oakland Center
06:00PM 41.4414 -121.5378 350° North 446 513 38,000  Level Seattle Center
06:01PM 41.5631 -121.5681 349° North 446 513 38,000  Level Seattle Center
06:02PM 41.6856 -121.5944 351° North 447 514 38,000  Level Seattle Center
06:03PM 41.8058 -121.6242 350° North 445 512 38,000  Level Seattle Center
06:04PM 41.9281 -121.6472 352° North 448 516 38,000  Level Seattle Center
06:05PM 42.0714 -121.6833 349° North 443 510 38,000  Level Seattle Center
06:06PM 42.1922 -121.7069 352° North 446 513 38,000  Level Seattle Center
06:07PM 42.3103 -121.7397 348° North 441 507 38,000  Level Seattle Center
06:09PM 42.5528 -121.7950 350° North 440 506 38,000  Level Seattle Center
06:10PM 42.6736 -121.8228 350° North 441 507 38,000  Level Seattle Center
06:12PM 42.8012 -121.8537 350° North  Level FlightAware Approximate
06:12PM 42.9408 -121.8889 350° North 444 511 38,000  Level Seattle Center
06:13PM 43.0622 -121.9125 352° North 441 507 38,000  Level Seattle Center
06:14PM 43.1831 -121.9447 349° North 440 506 38,000  Level Seattle Center
06:15PM 43.3139 -121.9761 350° North 447 514 38,000  Level Seattle Center
06:16PM 43.4342 -122.0078 349° North 444 511 38,000  Level Seattle Center
06:17PM 43.5550 -122.0353 351° North 444 511 38,000  Level Seattle Center
06:19PM 43.6750 -122.0644 350° North 439 505 38,000  Level Seattle Center
06:20PM 43.7950 -122.0911 351° North 438 504 38,000  Level Seattle Center
06:21PM 43.9167 -122.1211 350° North 447 514 38,000  Level Seattle Center
06:22PM 44.0347 -122.1506 350° North 434 499 38,000  Level Seattle Center
06:23PM 44.1553 -122.1797 350° North 440 506 38,000  Level Seattle Center
06:24PM 44.2733 -122.2119 349° North 437 503 38,000  Level Seattle Center
06:25PM 44.4175 -122.2453 351° North 439 505 38,000  Level Seattle Center
06:26PM 44.5361 -122.2781 349° North 439 505 38,000  Level Seattle Center
06:27PM 44.6578 -122.3047 351° North 442 509 38,000  Level Seattle Center
06:28PM 44.7764 -122.3400 348° North 439 505 38,000  Level Seattle Center
06:29PM 44.8925 -122.3647 351° North 439 505 38,000  Level Seattle Center
06:30PM 45.0144 -122.4000 348° North 446 513 38,000  Level Seattle Center
06:31PM 45.1347 -122.4292 350° North 444 511 38,000 -60 Level Seattle Center
06:32PM 45.2758 -122.4639 350° North 437 503 37,900 -1,200 Descending Seattle Center
06:33PM 45.3975 -122.4978 349° North 446 513 35,600 -2,340 Descending Seattle Center
06:34PM 45.5217 -122.5294 350° North 453 521 33,200 -2,340 Descending Seattle Center
06:35PM 45.6450 -122.5592 350° North 453 521 30,900 -2,160 Descending Seattle Center
06:36PM 45.7653 -122.5953 348° North 445 512 28,800 -2,220 Descending Seattle Center
06:37PM 45.8861 -122.6194 352° North 441 507 26,500 -2,220 Descending Seattle Center
06:38PM 46.0058 -122.6517 349° North 439 505 24,300 -2,460 Descending Seattle Center
06:39PM 46.1214 -122.6858 348° North 429 494 21,500 -2,940 Descending Seattle Center
06:40PM 46.2500 -122.7133 352° North 409 471 18,400 -2,760 Descending Seattle Center
06:41PM 46.3494 -122.7425 349° North 373 429 15,900 -2,700 Descending Seattle Center
06:42PM 46.4433 -122.7664 350° North 352 405 12,900 -2,460 Descending Seattle Center
06:43PM 46.5328 -122.7883 350° North 334 384 10,900 -1,440 Descending Seattle Center
06:44PM 46.6147 -122.8086 350° North 307 353 10,000 -600 Descending Seattle Center
06:45PM 46.6772 -122.8250 350° North 307 353 10,000  Level Seattle Center
06:46PM 46.7628 -122.8472 350° North 311 358 10,000 -600 Level Seattle Center
06:47PM 46.8333 -122.8289 10° North 285 328 8,900 -1,500 Descending Seattle Center
06:47PM 46.8728 -122.8064 21° North 276 318 7,800 -1,980 Descending Seattle Center
06:48PM 46.9122 -122.7897 16° North 273 314 6,700 -1,920 Descending Seattle Center
06:49PM 46.9853 -122.7539 18° North 258 297 4,900 -1,680 Descending Seattle Center
06:50PM 47.0519 -122.7278 15° North 244 281 3,300 -720 Descending Seattle Center
06:52PM 47.1918 -122.6415 34° Northeast  Level FlightAware Approximate
06:52PM 47.1828 -122.6469 34° Northeast 192 221 2,400  Level Seattle Center
06:54PM 47.2439 -122.6436 North 166 191 1,900 -240 Descending Seattle Center
06:56PM 47.3192 -122.6158 14° North 155 178 1,600 -300 Descending Seattle Center
06:56PM 47.3083 -122.5750 111° Southeast 145 167 1,100 -540 Descending Seattle Center
06:57PM 47.2761 -122.5744 179° South 135 155 700 -420 Descending Seattle Center
06:59PM 47.2667 -122.5667 180° South  Level FlightAware Approximate
07:06PM 47.2679 -122.5781 180° South  Level Estimated
07:07PM 47.2679 -122.5781 180° South  Level Estimated
07:08PM 47.2679 -122.5781 180° South  Level Estimated